sensor_id;sensor_type;location;lat;lon;timestamp;P1;durP1;ratioP1;P2;durP2;ratioP2
76336;SDS011;65157;50.082;18.178;2023-02-01T00:02:11;1.80;;;1.40;;
76336;SDS011;65157;50.082;18.178;2023-02-01T00:04:37;2.70;;;1.70;;
76336;SDS011;65157;50.082;18.178;2023-02-01T00:07:04;1.80;;;1.30;;
76336;SDS011;65157;50.082;18.178;2023-02-01T00:09:30;2.20;;;1.90;;
76336;SDS011;65157;50.082;18.178;2023-02-01T00:11:57;2.50;;;1.80;;
76336;SDS011;65157;50.082;18.178;2023-02-01T00:14:25;1.60;;;1.30;;
76336;SDS011;65157;50.082;18.178;2023-02-01T00:16:52;2.40;;;1.50;;
76336;SDS011;65157;50.082;18.178;2023-02-01T00:19:18;1.80;;;1.20;;
76336;SDS011;65157;50.082;18.178;2023-02-01T00:21:45;3.30;;;1.80;;
76336;SDS011;65157;50.082;18.178;2023-02-01T00:24:12;2.60;;;1.90;;
76336;SDS011;65157;50.082;18.178;2023-02-01T00:26:40;1.60;;;1.50;;
76336;SDS011;65157;50.082;18.178;2023-02-01T00:29:15;2.10;;;1.60;;
76336;SDS011;65157;50.082;18.178;2023-02-01T00:31:44;3.30;;;1.70;;
76336;SDS011;65157;50.082;18.178;2023-02-01T00:34:12;2.80;;;1.30;;
76336;SDS011;65157;50.082;18.178;2023-02-01T00:36:42;2.40;;;1.80;;
76336;SDS011;65157;50.082;18.178;2023-02-01T00:39:10;2.60;;;1.80;;
76336;SDS011;65157;50.082;18.178;2023-02-01T00:41:38;1.80;;;1.30;;
76336;SDS011;65157;50.082;18.178;2023-02-01T00:44:05;1.40;;;0.60;;
76336;SDS011;65157;50.082;18.178;2023-02-01T00:46:31;1.00;;;0.90;;
76336;SDS011;65157;50.082;18.178;2023-02-01T00:48:58;1.70;;;1.50;;
76336;SDS011;65157;50.082;18.178;2023-02-01T00:51:26;1.30;;;1.10;;
76336;SDS011;65157;50.082;18.178;2023-02-01T00:53:54;1.30;;;1.20;;
76336;SDS011;65157;50.082;18.178;2023-02-01T00:56:21;1.00;;;0.80;;
76336;SDS011;65157;50.082;18.178;2023-02-01T00:58:48;1.50;;;1.20;;
76336;SDS011;65157;50.082;18.178;2023-02-01T01:01:16;1.30;;;0.80;;
76336;SDS011;65157;50.082;18.178;2023-02-01T01:03:46;1.20;;;0.80;;
76336;SDS011;65157;50.082;18.178;2023-02-01T01:06:19;0.60;;;0.60;;
76336;SDS011;65157;50.082;18.178;2023-02-01T01:08:50;2.20;;;1.10;;
76336;SDS011;65157;50.082;18.178;2023-02-01T01:11:20;1.50;;;1.30;;
76336;SDS011;65157;50.082;18.178;2023-02-01T01:13:56;1.60;;;1.40;;
76336;SDS011;65157;50.082;18.178;2023-02-01T01:16:24;3.30;;;1.60;;
76336;SDS011;65157;50.082;18.178;2023-02-01T01:18:53;0.80;;;0.80;;
76336;SDS011;65157;50.082;18.178;2023-02-01T01:21:20;1.70;;;1.20;;
76336;SDS011;65157;50.082;18.178;2023-02-01T01:23:47;0.90;;;0.90;;
76336;SDS011;65157;50.082;18.178;2023-02-01T01:26:18;2.00;;;1.20;;
76336;SDS011;65157;50.082;18.178;2023-02-01T01:28:47;1.40;;;1.10;;
76336;SDS011;65157;50.082;18.178;2023-02-01T01:31:14;1.00;;;0.90;;
76336;SDS011;65157;50.082;18.178;2023-02-01T01:33:43;1.40;;;1.00;;
76336;SDS011;65157;50.082;18.178;2023-02-01T01:36:10;1.80;;;1.20;;
76336;SDS011;65157;50.082;18.178;2023-02-01T01:38:41;1.70;;;1.10;;
76336;SDS011;65157;50.082;18.178;2023-02-01T01:41:08;1.10;;;1.00;;
76336;SDS011;65157;50.082;18.178;2023-02-01T01:46:54;0.80;;;0.40;;
76336;SDS011;65157;50.082;18.178;2023-02-01T01:49:21;0.50;;;0.30;;
76336;SDS011;65157;50.082;18.178;2023-02-01T01:51:59;1.50;;;0.70;;
76336;SDS011;65157;50.082;18.178;2023-02-01T01:54:29;0.50;;;0.50;;
76336;SDS011;65157;50.082;18.178;2023-02-01T01:57:11;0.30;;;0.30;;
76336;SDS011;65157;50.082;18.178;2023-02-01T01:59:45;0.60;;;0.20;;
76336;SDS011;65157;50.082;18.178;2023-02-01T02:02:16;0.80;;;0.30;;
76336;SDS011;65157;50.082;18.178;2023-02-01T02:04:43;0.60;;;0.30;;
76336;SDS011;65157;50.082;18.178;2023-02-01T02:07:14;0.40;;;0.10;;
76336;SDS011;65157;50.082;18.178;2023-02-01T02:09:45;0.30;;;0.20;;
76336;SDS011;65157;50.082;18.178;2023-02-01T02:12:12;0.90;;;0.20;;
76336;SDS011;65157;50.082;18.178;2023-02-01T02:14:39;1.30;;;0.10;;
76336;SDS011;65157;50.082;18.178;2023-02-01T02:20:09;0.20;;;0.20;;
76336;SDS011;65157;50.082;18.178;2023-02-01T02:40:02;1.90;;;1.30;;
76336;SDS011;65157;50.082;18.178;2023-02-01T02:45:55;0.90;;;0.80;;
76336;SDS011;65157;50.082;18.178;2023-02-01T02:48:53;0.90;;;0.90;;
76336;SDS011;65157;50.082;18.178;2023-02-01T02:51:41;0.70;;;0.70;;
76336;SDS011;65157;50.082;18.178;2023-02-01T02:54:32;1.30;;;1.20;;
76336;SDS011;65157;50.082;18.178;2023-02-01T02:57:13;1.70;;;1.60;;
76336;SDS011;65157;50.082;18.178;2023-02-01T03:00:04;1.70;;;1.50;;
76336;SDS011;65157;50.082;18.178;2023-02-01T03:02:53;1.10;;;1.00;;
76336;SDS011;65157;50.082;18.178;2023-02-01T03:05:40;1.10;;;0.80;;
76336;SDS011;65157;50.082;18.178;2023-02-01T03:16:31;0.90;;;0.90;;
76336;SDS011;65157;50.082;18.178;2023-02-01T03:19:06;2.40;;;1.30;;
76336;SDS011;65157;50.082;18.178;2023-02-01T03:21:41;1.20;;;1.10;;
76336;SDS011;65157;50.082;18.178;2023-02-01T03:24:31;1.10;;;1.00;;
76336;SDS011;65157;50.082;18.178;2023-02-01T03:27:02;1.30;;;1.20;;
76336;SDS011;65157;50.082;18.178;2023-02-01T03:30:01;0.20;;;0.20;;
76336;SDS011;65157;50.082;18.178;2023-02-01T03:32:38;1.30;;;0.90;;
76336;SDS011;65157;50.082;18.178;2023-02-01T03:38:12;1.60;;;0.70;;
76336;SDS011;65157;50.082;18.178;2023-02-01T03:40:44;1.30;;;0.70;;
76336;SDS011;65157;50.082;18.178;2023-02-01T03:43:16;1.90;;;0.50;;
76336;SDS011;65157;50.082;18.178;2023-02-01T03:45:47;4.50;;;0.80;;
76336;SDS011;65157;50.082;18.178;2023-02-01T03:48:18;1.00;;;0.50;;
76336;SDS011;65157;50.082;18.178;2023-02-01T03:50:49;1.10;;;0.50;;
76336;SDS011;65157;50.082;18.178;2023-02-01T03:53:22;0.40;;;0.20;;
76336;SDS011;65157;50.082;18.178;2023-02-01T03:55:51;2.60;;;0.70;;
76336;SDS011;65157;50.082;18.178;2023-02-01T03:58:21;1.20;;;0.70;;
76336;SDS011;65157;50.082;18.178;2023-02-01T04:00:53;3.50;;;1.10;;
76336;SDS011;65157;50.082;18.178;2023-02-01T04:03:24;0.60;;;0.50;;
76336;SDS011;65157;50.082;18.178;2023-02-01T04:05:55;3.10;;;1.00;;
76336;SDS011;65157;50.082;18.178;2023-02-01T04:08:23;0.60;;;0.30;;
76336;SDS011;65157;50.082;18.178;2023-02-01T04:10:50;3.40;;;0.60;;
76336;SDS011;65157;50.082;18.178;2023-02-01T04:13:16;1.90;;;0.80;;
76336;SDS011;65157;50.082;18.178;2023-02-01T04:15:43;2.70;;;0.60;;
76336;SDS011;65157;50.082;18.178;2023-02-01T04:18:11;2.70;;;0.60;;
76336;SDS011;65157;50.082;18.178;2023-02-01T04:20:38;1.90;;;0.50;;
76336;SDS011;65157;50.082;18.178;2023-02-01T04:23:04;1.00;;;0.50;;
76336;SDS011;65157;50.082;18.178;2023-02-01T04:25:31;0.90;;;0.30;;
76336;SDS011;65157;50.082;18.178;2023-02-01T04:27:58;2.60;;;0.80;;
76336;SDS011;65157;50.082;18.178;2023-02-01T04:30:26;2.00;;;0.90;;
76336;SDS011;65157;50.082;18.178;2023-02-01T04:32:52;3.20;;;0.90;;
76336;SDS011;65157;50.082;18.178;2023-02-01T04:35:34;3.80;;;1.20;;
76336;SDS011;65157;50.082;18.178;2023-02-01T04:38:06;3.00;;;0.70;;
76336;SDS011;65157;50.082;18.178;2023-02-01T04:40:33;3.80;;;0.60;;
76336;SDS011;65157;50.082;18.178;2023-02-01T04:43:00;4.10;;;1.40;;
76336;SDS011;65157;50.082;18.178;2023-02-01T04:47:54;4.00;;;0.80;;
76336;SDS011;65157;50.082;18.178;2023-02-01T04:50:20;6.30;;;1.00;;
76336;SDS011;65157;50.082;18.178;2023-02-01T04:52:47;5.70;;;1.00;;
76336;SDS011;65157;50.082;18.178;2023-02-01T04:55:14;7.40;;;0.90;;
76336;SDS011;65157;50.082;18.178;2023-02-01T04:57:44;4.00;;;1.80;;
76336;SDS011;65157;50.082;18.178;2023-02-01T05:00:21;5.20;;;1.50;;
76336;SDS011;65157;50.082;18.178;2023-02-01T05:02:53;6.90;;;2.00;;
76336;SDS011;65157;50.082;18.178;2023-02-01T05:05:20;4.40;;;1.90;;
76336;SDS011;65157;50.082;18.178;2023-02-01T05:07:46;4.60;;;1.50;;
76336;SDS011;65157;50.082;18.178;2023-02-01T05:10:13;5.00;;;1.90;;
76336;SDS011;65157;50.082;18.178;2023-02-01T05:12:40;3.40;;;1.40;;
76336;SDS011;65157;50.082;18.178;2023-02-01T05:15:29;3.50;;;1.10;;
76336;SDS011;65157;50.082;18.178;2023-02-01T05:17:56;6.20;;;1.50;;
76336;SDS011;65157;50.082;18.178;2023-02-01T05:20:23;5.50;;;1.60;;
76336;SDS011;65157;50.082;18.178;2023-02-01T05:22:50;5.10;;;1.70;;
76336;SDS011;65157;50.082;18.178;2023-02-01T05:25:17;4.50;;;1.60;;
76336;SDS011;65157;50.082;18.178;2023-02-01T05:27:45;3.20;;;1.70;;
76336;SDS011;65157;50.082;18.178;2023-02-01T05:30:12;4.00;;;1.30;;
76336;SDS011;65157;50.082;18.178;2023-02-01T05:32:38;4.20;;;1.60;;
76336;SDS011;65157;50.082;18.178;2023-02-01T05:35:05;5.30;;;1.60;;
76336;SDS011;65157;50.082;18.178;2023-02-01T05:37:32;5.20;;;1.70;;
76336;SDS011;65157;50.082;18.178;2023-02-01T05:39:59;4.80;;;1.70;;
76336;SDS011;65157;50.082;18.178;2023-02-01T05:42:25;3.40;;;1.60;;
76336;SDS011;65157;50.082;18.178;2023-02-01T05:44:52;7.60;;;2.60;;
76336;SDS011;65157;50.082;18.178;2023-02-01T05:47:19;14.70;;;4.60;;
76336;SDS011;65157;50.082;18.178;2023-02-01T05:49:46;6.90;;;2.70;;
76336;SDS011;65157;50.082;18.178;2023-02-01T05:52:13;5.10;;;2.10;;
76336;SDS011;65157;50.082;18.178;2023-02-01T05:54:45;4.80;;;2.20;;
76336;SDS011;65157;50.082;18.178;2023-02-01T05:57:15;12.90;;;3.50;;
76336;SDS011;65157;50.082;18.178;2023-02-01T05:59:42;5.10;;;1.40;;
76336;SDS011;65157;50.082;18.178;2023-02-01T06:02:14;4.60;;;2.00;;
76336;SDS011;65157;50.082;18.178;2023-02-01T06:04:41;5.20;;;1.80;;
76336;SDS011;65157;50.082;18.178;2023-02-01T06:07:08;3.50;;;1.70;;
76336;SDS011;65157;50.082;18.178;2023-02-01T06:09:36;6.10;;;2.00;;
76336;SDS011;65157;50.082;18.178;2023-02-01T06:12:03;2.90;;;1.30;;
76336;SDS011;65157;50.082;18.178;2023-02-01T06:14:30;3.30;;;1.00;;
76336;SDS011;65157;50.082;18.178;2023-02-01T06:16:57;8.90;;;3.60;;
76336;SDS011;65157;50.082;18.178;2023-02-01T06:19:23;7.70;;;2.90;;
76336;SDS011;65157;50.082;18.178;2023-02-01T06:21:50;5.10;;;2.40;;
76336;SDS011;65157;50.082;18.178;2023-02-01T06:24:17;10.50;;;4.30;;
76336;SDS011;65157;50.082;18.178;2023-02-01T06:26:43;9.50;;;3.80;;
76336;SDS011;65157;50.082;18.178;2023-02-01T06:29:10;6.20;;;3.10;;
76336;SDS011;65157;50.082;18.178;2023-02-01T06:31:37;3.70;;;1.90;;
76336;SDS011;65157;50.082;18.178;2023-02-01T06:34:04;3.70;;;1.80;;
76336;SDS011;65157;50.082;18.178;2023-02-01T06:36:30;4.90;;;2.90;;
76336;SDS011;65157;50.082;18.178;2023-02-01T06:38:57;4.20;;;1.70;;
76336;SDS011;65157;50.082;18.178;2023-02-01T06:41:25;1.60;;;1.00;;
76336;SDS011;65157;50.082;18.178;2023-02-01T06:43:52;4.90;;;1.30;;
76336;SDS011;65157;50.082;18.178;2023-02-01T06:46:18;4.30;;;2.00;;
76336;SDS011;65157;50.082;18.178;2023-02-01T06:48:45;5.90;;;3.00;;
76336;SDS011;65157;50.082;18.178;2023-02-01T06:51:25;4.90;;;2.60;;
76336;SDS011;65157;50.082;18.178;2023-02-01T06:53:52;3.90;;;2.00;;
76336;SDS011;65157;50.082;18.178;2023-02-01T06:56:19;3.00;;;1.90;;
76336;SDS011;65157;50.082;18.178;2023-02-01T06:58:47;4.60;;;1.80;;
76336;SDS011;65157;50.082;18.178;2023-02-01T07:01:14;4.00;;;1.80;;
76336;SDS011;65157;50.082;18.178;2023-02-01T07:06:08;5.90;;;2.00;;
76336;SDS011;65157;50.082;18.178;2023-02-01T07:08:36;4.30;;;1.50;;
76336;SDS011;65157;50.082;18.178;2023-02-01T07:11:04;2.10;;;1.60;;
76336;SDS011;65157;50.082;18.178;2023-02-01T07:13:32;3.30;;;2.10;;
76336;SDS011;65157;50.082;18.178;2023-02-01T07:16:00;4.40;;;2.00;;
76336;SDS011;65157;50.082;18.178;2023-02-01T07:18:28;5.40;;;1.90;;
76336;SDS011;65157;50.082;18.178;2023-02-01T07:20:56;1.90;;;1.40;;
76336;SDS011;65157;50.082;18.178;2023-02-01T07:23:23;4.50;;;2.10;;
76336;SDS011;65157;50.082;18.178;2023-02-01T07:25:54;4.40;;;2.40;;
76336;SDS011;65157;50.082;18.178;2023-02-01T07:28:22;2.40;;;1.80;;
76336;SDS011;65157;50.082;18.178;2023-02-01T07:30:50;4.50;;;1.70;;
76336;SDS011;65157;50.082;18.178;2023-02-01T07:33:21;6.50;;;2.30;;
76336;SDS011;65157;50.082;18.178;2023-02-01T07:35:49;5.30;;;2.10;;
76336;SDS011;65157;50.082;18.178;2023-02-01T07:38:16;2.50;;;1.60;;
76336;SDS011;65157;50.082;18.178;2023-02-01T07:40:44;4.30;;;2.20;;
76336;SDS011;65157;50.082;18.178;2023-02-01T07:43:10;3.50;;;1.80;;
76336;SDS011;65157;50.082;18.178;2023-02-01T07:45:37;5.70;;;1.80;;
76336;SDS011;65157;50.082;18.178;2023-02-01T07:48:03;5.10;;;2.20;;
76336;SDS011;65157;50.082;18.178;2023-02-01T07:50:31;5.00;;;2.00;;
76336;SDS011;65157;50.082;18.178;2023-02-01T07:52:58;11.90;;;2.70;;
76336;SDS011;65157;50.082;18.178;2023-02-01T07:55:26;7.00;;;2.40;;
76336;SDS011;65157;50.082;18.178;2023-02-01T07:57:56;7.80;;;3.20;;
76336;SDS011;65157;50.082;18.178;2023-02-01T08:00:24;8.20;;;2.50;;
76336;SDS011;65157;50.082;18.178;2023-02-01T08:03:11;4.60;;;2.20;;
76336;SDS011;65157;50.082;18.178;2023-02-01T08:05:37;5.70;;;1.90;;
76336;SDS011;65157;50.082;18.178;2023-02-01T08:08:04;5.00;;;2.20;;
76336;SDS011;65157;50.082;18.178;2023-02-01T08:10:32;6.80;;;2.50;;
76336;SDS011;65157;50.082;18.178;2023-02-01T08:15:26;4.70;;;1.90;;
76336;SDS011;65157;50.082;18.178;2023-02-01T08:17:54;8.60;;;2.80;;
76336;SDS011;65157;50.082;18.178;2023-02-01T08:20:21;9.80;;;3.40;;
76336;SDS011;65157;50.082;18.178;2023-02-01T08:22:52;6.60;;;2.80;;
76336;SDS011;65157;50.082;18.178;2023-02-01T08:25:19;9.90;;;2.80;;
76336;SDS011;65157;50.082;18.178;2023-02-01T08:27:46;3.10;;;1.50;;
76336;SDS011;65157;50.082;18.178;2023-02-01T08:30:12;5.00;;;2.20;;
76336;SDS011;65157;50.082;18.178;2023-02-01T08:32:39;10.70;;;3.80;;
76336;SDS011;65157;50.082;18.178;2023-02-01T08:35:07;6.90;;;2.20;;
76336;SDS011;65157;50.082;18.178;2023-02-01T08:37:34;9.00;;;3.70;;
76336;SDS011;65157;50.082;18.178;2023-02-01T08:40:01;2.50;;;1.40;;
76336;SDS011;65157;50.082;18.178;2023-02-01T08:42:28;8.60;;;3.10;;
76336;SDS011;65157;50.082;18.178;2023-02-01T08:45:13;9.90;;;3.70;;
76336;SDS011;65157;50.082;18.178;2023-02-01T08:47:40;12.10;;;5.20;;
76336;SDS011;65157;50.082;18.178;2023-02-01T08:50:07;11.40;;;4.00;;
76336;SDS011;65157;50.082;18.178;2023-02-01T08:52:37;4.20;;;2.40;;
76336;SDS011;65157;50.082;18.178;2023-02-01T08:55:04;9.50;;;3.00;;
76336;SDS011;65157;50.082;18.178;2023-02-01T08:57:32;7.60;;;3.20;;
76336;SDS011;65157;50.082;18.178;2023-02-01T09:00:00;5.50;;;2.50;;
76336;SDS011;65157;50.082;18.178;2023-02-01T09:02:26;11.60;;;6.20;;
76336;SDS011;65157;50.082;18.178;2023-02-01T09:04:53;4.10;;;2.50;;
76336;SDS011;65157;50.082;18.178;2023-02-01T09:07:22;2.70;;;1.70;;
76336;SDS011;65157;50.082;18.178;2023-02-01T09:09:49;3.10;;;1.80;;
76336;SDS011;65157;50.082;18.178;2023-02-01T09:12:15;3.80;;;1.70;;
76336;SDS011;65157;50.082;18.178;2023-02-01T09:14:42;3.10;;;1.70;;
76336;SDS011;65157;50.082;18.178;2023-02-01T09:17:08;2.30;;;0.90;;
76336;SDS011;65157;50.082;18.178;2023-02-01T09:19:35;1.70;;;0.70;;
76336;SDS011;65157;50.082;18.178;2023-02-01T09:22:02;3.20;;;1.50;;
76336;SDS011;65157;50.082;18.178;2023-02-01T09:24:28;3.50;;;1.60;;
76336;SDS011;65157;50.082;18.178;2023-02-01T09:26:55;4.70;;;1.60;;
76336;SDS011;65157;50.082;18.178;2023-02-01T09:29:21;4.70;;;2.40;;
76336;SDS011;65157;50.082;18.178;2023-02-01T09:31:48;7.10;;;2.50;;
76336;SDS011;65157;50.082;18.178;2023-02-01T09:34:15;6.60;;;2.70;;
76336;SDS011;65157;50.082;18.178;2023-02-01T09:36:41;6.00;;;2.40;;
76336;SDS011;65157;50.082;18.178;2023-02-01T09:39:08;3.70;;;1.70;;
76336;SDS011;65157;50.082;18.178;2023-02-01T09:41:38;4.80;;;2.30;;
76336;SDS011;65157;50.082;18.178;2023-02-01T09:46:41;5.70;;;1.70;;
76336;SDS011;65157;50.082;18.178;2023-02-01T09:49:22;6.20;;;1.80;;
76336;SDS011;65157;50.082;18.178;2023-02-01T09:51:54;4.20;;;1.90;;
76336;SDS011;65157;50.082;18.178;2023-02-01T09:54:26;5.80;;;1.60;;
76336;SDS011;65157;50.082;18.178;2023-02-01T09:57:22;3.40;;;1.20;;
76336;SDS011;65157;50.082;18.178;2023-02-01T09:59:54;2.10;;;1.10;;
76336;SDS011;65157;50.082;18.178;2023-02-01T10:02:27;1.10;;;1.00;;
76336;SDS011;65157;50.082;18.178;2023-02-01T10:04:59;4.60;;;2.20;;
76336;SDS011;65157;50.082;18.178;2023-02-01T10:07:31;3.50;;;1.80;;
76336;SDS011;65157;50.082;18.178;2023-02-01T10:16:11;2.70;;;1.30;;
76336;SDS011;65157;50.082;18.178;2023-02-01T10:19:05;3.10;;;1.10;;
76336;SDS011;65157;50.082;18.178;2023-02-01T10:29:42;1.60;;;1.40;;
76336;SDS011;65157;50.082;18.178;2023-02-01T10:32:22;2.10;;;1.10;;
76336;SDS011;65157;50.082;18.178;2023-02-01T10:35:04;3.50;;;1.30;;
76336;SDS011;65157;50.082;18.178;2023-02-01T10:37:39;3.70;;;1.70;;
76336;SDS011;65157;50.082;18.178;2023-02-01T10:40:15;2.40;;;1.30;;
76336;SDS011;65157;50.082;18.178;2023-02-01T10:42:45;2.90;;;1.40;;
76336;SDS011;65157;50.082;18.178;2023-02-01T10:45:14;1.20;;;0.60;;
76336;SDS011;65157;50.082;18.178;2023-02-01T10:47:43;2.50;;;1.20;;
76336;SDS011;65157;50.082;18.178;2023-02-01T10:50:25;0.90;;;0.50;;
76336;SDS011;65157;50.082;18.178;2023-02-01T10:58:15;1.70;;;1.10;;
76336;SDS011;65157;50.082;18.178;2023-02-01T11:01:01;2.30;;;1.00;;
76336;SDS011;65157;50.082;18.178;2023-02-01T11:03:51;1.80;;;1.10;;
76336;SDS011;65157;50.082;18.178;2023-02-01T11:08:48;4.30;;;1.40;;
76336;SDS011;65157;50.082;18.178;2023-02-01T11:11:20;2.10;;;1.30;;
76336;SDS011;65157;50.082;18.178;2023-02-01T11:13:52;3.60;;;1.70;;
76336;SDS011;65157;50.082;18.178;2023-02-01T11:16:28;2.20;;;1.40;;
76336;SDS011;65157;50.082;18.178;2023-02-01T11:18:58;2.50;;;1.30;;
76336;SDS011;65157;50.082;18.178;2023-02-01T11:21:25;2.70;;;1.50;;
76336;SDS011;65157;50.082;18.178;2023-02-01T11:23:52;2.20;;;1.20;;
76336;SDS011;65157;50.082;18.178;2023-02-01T11:26:23;3.80;;;1.60;;
76336;SDS011;65157;50.082;18.178;2023-02-01T11:28:53;2.30;;;1.40;;
76336;SDS011;65157;50.082;18.178;2023-02-01T11:31:34;4.10;;;1.90;;
76336;SDS011;65157;50.082;18.178;2023-02-01T11:34:08;3.70;;;1.90;;
76336;SDS011;65157;50.082;18.178;2023-02-01T11:36:47;4.80;;;1.80;;
76336;SDS011;65157;50.082;18.178;2023-02-01T11:39:34;5.30;;;1.70;;
76336;SDS011;65157;50.082;18.178;2023-02-01T11:42:16;2.80;;;1.70;;
76336;SDS011;65157;50.082;18.178;2023-02-01T11:44:44;4.80;;;1.90;;
76336;SDS011;65157;50.082;18.178;2023-02-01T11:47:58;3.90;;;2.20;;
76336;SDS011;65157;50.082;18.178;2023-02-01T11:50:17;4.00;;;1.80;;
76336;SDS011;65157;50.082;18.178;2023-02-01T12:10:21;2.70;;;1.40;;
76336;SDS011;65157;50.082;18.178;2023-02-01T12:24:07;2.60;;;1.50;;
76336;SDS011;65157;50.082;18.178;2023-02-01T12:26:46;3.10;;;1.80;;
76336;SDS011;65157;50.082;18.178;2023-02-01T12:29:16;2.30;;;1.60;;
76336;SDS011;65157;50.082;18.178;2023-02-01T12:40:15;4.60;;;1.90;;
76336;SDS011;65157;50.082;18.178;2023-02-01T12:46:02;3.20;;;1.80;;
76336;SDS011;65157;50.082;18.178;2023-02-01T12:48:52;3.50;;;1.70;;
76336;SDS011;65157;50.082;18.178;2023-02-01T12:51:34;2.10;;;1.30;;
76336;SDS011;65157;50.082;18.178;2023-02-01T12:54:06;2.70;;;1.60;;
76336;SDS011;65157;50.082;18.178;2023-02-01T12:56:43;4.40;;;2.10;;
76336;SDS011;65157;50.082;18.178;2023-02-01T12:59:19;3.00;;;1.80;;
76336;SDS011;65157;50.082;18.178;2023-02-01T13:01:49;2.80;;;1.60;;
76336;SDS011;65157;50.082;18.178;2023-02-01T13:07:11;1.50;;;1.00;;
76336;SDS011;65157;50.082;18.178;2023-02-01T13:09:49;3.00;;;1.70;;
76336;SDS011;65157;50.082;18.178;2023-02-01T13:12:25;2.20;;;1.30;;
76336;SDS011;65157;50.082;18.178;2023-02-01T13:15:20;1.70;;;1.10;;
76336;SDS011;65157;50.082;18.178;2023-02-01T13:17:52;2.40;;;1.20;;
76336;SDS011;65157;50.082;18.178;2023-02-01T13:20:32;1.40;;;0.90;;
76336;SDS011;65157;50.082;18.178;2023-02-01T13:25:48;3.10;;;1.40;;
76336;SDS011;65157;50.082;18.178;2023-02-01T13:34:26;0.70;;;0.60;;
76336;SDS011;65157;50.082;18.178;2023-02-01T13:39:43;1.80;;;1.10;;
76336;SDS011;65157;50.082;18.178;2023-02-01T13:43:17;1.80;;;1.10;;
76336;SDS011;65157;50.082;18.178;2023-02-01T13:45:25;0.80;;;0.70;;
76336;SDS011;65157;50.082;18.178;2023-02-01T13:47:56;0.40;;;0.40;;
76336;SDS011;65157;50.082;18.178;2023-02-01T13:50:28;1.20;;;1.10;;
76336;SDS011;65157;50.082;18.178;2023-02-01T13:53:21;2.40;;;1.40;;
76336;SDS011;65157;50.082;18.178;2023-02-01T13:55:58;1.10;;;1.00;;
76336;SDS011;65157;50.082;18.178;2023-02-01T13:58:32;2.40;;;1.20;;
76336;SDS011;65157;50.082;18.178;2023-02-01T14:03:56;1.30;;;0.80;;
76336;SDS011;65157;50.082;18.178;2023-02-01T14:16:44;6.30;;;2.90;;
76336;SDS011;65157;50.082;18.178;2023-02-01T14:19:36;4.90;;;2.30;;
76336;SDS011;65157;50.082;18.178;2023-02-01T14:24:53;2.80;;;2.10;;
76336;SDS011;65157;50.082;18.178;2023-02-01T14:27:26;4.90;;;3.20;;
76336;SDS011;65157;50.082;18.178;2023-02-01T14:29:57;3.50;;;2.30;;
76336;SDS011;65157;50.082;18.178;2023-02-01T14:32:38;3.00;;;1.60;;
76336;SDS011;65157;50.082;18.178;2023-02-01T14:35:26;2.40;;;1.70;;
76336;SDS011;65157;50.082;18.178;2023-02-01T14:37:58;1.80;;;1.50;;
76336;SDS011;65157;50.082;18.178;2023-02-01T14:40:28;3.10;;;1.90;;
76336;SDS011;65157;50.082;18.178;2023-02-01T14:42:56;2.80;;;1.90;;
76336;SDS011;65157;50.082;18.178;2023-02-01T14:47:54;5.90;;;2.80;;
76336;SDS011;65157;50.082;18.178;2023-02-01T15:00:52;2.20;;;1.30;;
76336;SDS011;65157;50.082;18.178;2023-02-01T15:06:16;1.10;;;0.90;;
76336;SDS011;65157;50.082;18.178;2023-02-01T15:14:23;1.80;;;1.20;;
76336;SDS011;65157;50.082;18.178;2023-02-01T15:16:51;3.10;;;1.80;;
76336;SDS011;65157;50.082;18.178;2023-02-01T15:19:24;2.90;;;1.30;;
76336;SDS011;65157;50.082;18.178;2023-02-01T15:21:54;2.60;;;1.40;;
76336;SDS011;65157;50.082;18.178;2023-02-01T15:24:23;6.40;;;3.20;;
76336;SDS011;65157;50.082;18.178;2023-02-01T15:26:53;2.90;;;2.00;;
76336;SDS011;65157;50.082;18.178;2023-02-01T15:29:21;3.60;;;2.20;;
76336;SDS011;65157;50.082;18.178;2023-02-01T15:31:53;3.40;;;1.50;;
76336;SDS011;65157;50.082;18.178;2023-02-01T15:34:20;3.10;;;1.70;;
76336;SDS011;65157;50.082;18.178;2023-02-01T15:36:47;2.20;;;1.10;;
76336;SDS011;65157;50.082;18.178;2023-02-01T15:39:21;4.40;;;2.40;;
76336;SDS011;65157;50.082;18.178;2023-02-01T15:41:53;3.10;;;1.10;;
76336;SDS011;65157;50.082;18.178;2023-02-01T15:47:17;2.60;;;1.10;;
76336;SDS011;65157;50.082;18.178;2023-02-01T15:49:47;1.40;;;0.70;;
76336;SDS011;65157;50.082;18.178;2023-02-01T15:52:22;3.20;;;1.60;;
76336;SDS011;65157;50.082;18.178;2023-02-01T15:54:57;3.30;;;1.60;;
76336;SDS011;65157;50.082;18.178;2023-02-01T15:57:27;5.20;;;2.00;;
76336;SDS011;65157;50.082;18.178;2023-02-01T15:59:58;2.80;;;1.60;;
76336;SDS011;65157;50.082;18.178;2023-02-01T16:02:28;3.50;;;1.40;;
76336;SDS011;65157;50.082;18.178;2023-02-01T16:05:01;2.70;;;1.30;;
76336;SDS011;65157;50.082;18.178;2023-02-01T16:07:30;1.40;;;0.80;;
76336;SDS011;65157;50.082;18.178;2023-02-01T16:10:00;1.90;;;1.00;;
76336;SDS011;65157;50.082;18.178;2023-02-01T16:12:34;4.70;;;2.30;;
76336;SDS011;65157;50.082;18.178;2023-02-01T16:15:12;3.80;;;1.30;;
76336;SDS011;65157;50.082;18.178;2023-02-01T16:17:39;1.90;;;1.40;;
76336;SDS011;65157;50.082;18.178;2023-02-01T16:20:06;3.10;;;1.30;;
76336;SDS011;65157;50.082;18.178;2023-02-01T16:22:33;3.30;;;1.30;;
76336;SDS011;65157;50.082;18.178;2023-02-01T16:24:59;5.50;;;2.10;;
76336;SDS011;65157;50.082;18.178;2023-02-01T16:27:28;13.50;;;5.30;;
76336;SDS011;65157;50.082;18.178;2023-02-01T16:29:54;24.10;;;7.40;;
76336;SDS011;65157;50.082;18.178;2023-02-01T16:32:23;14.00;;;5.00;;
76336;SDS011;65157;50.082;18.178;2023-02-01T16:34:49;20.70;;;6.30;;
76336;SDS011;65157;50.082;18.178;2023-02-01T16:37:18;38.80;;;11.00;;
76336;SDS011;65157;50.082;18.178;2023-02-01T16:39:47;39.40;;;11.00;;
76336;SDS011;65157;50.082;18.178;2023-02-01T16:42:15;47.90;;;12.50;;
76336;SDS011;65157;50.082;18.178;2023-02-01T16:44:42;45.00;;;12.90;;
76336;SDS011;65157;50.082;18.178;2023-02-01T16:47:19;48.90;;;13.70;;
76336;SDS011;65157;50.082;18.178;2023-02-01T16:49:48;36.40;;;12.00;;
76336;SDS011;65157;50.082;18.178;2023-02-01T16:52:18;12.00;;;5.10;;
76336;SDS011;65157;50.082;18.178;2023-02-01T16:54:47;9.10;;;3.40;;
76336;SDS011;65157;50.082;18.178;2023-02-01T16:57:16;11.20;;;4.00;;
76336;SDS011;65157;50.082;18.178;2023-02-01T16:59:44;17.60;;;5.90;;
76336;SDS011;65157;50.082;18.178;2023-02-01T17:02:12;44.50;;;11.80;;
76336;SDS011;65157;50.082;18.178;2023-02-01T17:04:40;34.20;;;10.60;;
76336;SDS011;65157;50.082;18.178;2023-02-01T17:07:11;39.60;;;13.70;;
76336;SDS011;65157;50.082;18.178;2023-02-01T17:09:39;26.10;;;10.10;;
76336;SDS011;65157;50.082;18.178;2023-02-01T17:12:06;20.90;;;9.70;;
76336;SDS011;65157;50.082;18.178;2023-02-01T17:14:44;20.80;;;8.10;;
76336;SDS011;65157;50.082;18.178;2023-02-01T17:17:11;18.10;;;6.60;;
76336;SDS011;65157;50.082;18.178;2023-02-01T17:19:39;13.00;;;5.50;;
76336;SDS011;65157;50.082;18.178;2023-02-01T17:22:07;13.90;;;6.30;;
76336;SDS011;65157;50.082;18.178;2023-02-01T17:24:34;14.70;;;7.20;;
76336;SDS011;65157;50.082;18.178;2023-02-01T17:27:01;9.20;;;4.10;;
76336;SDS011;65157;50.082;18.178;2023-02-01T17:29:29;9.80;;;4.20;;
76336;SDS011;65157;50.082;18.178;2023-02-01T17:31:56;7.80;;;3.40;;
76336;SDS011;65157;50.082;18.178;2023-02-01T17:34:25;7.60;;;3.40;;
76336;SDS011;65157;50.082;18.178;2023-02-01T17:36:52;13.40;;;5.40;;
76336;SDS011;65157;50.082;18.178;2023-02-01T17:39:19;7.20;;;3.60;;
76336;SDS011;65157;50.082;18.178;2023-02-01T17:42:07;11.50;;;4.90;;